createdAt,value
2022-11-30T00:01:14.990Z,79.42
2022-11-30T00:03:41.958Z,79.54
2022-11-30T00:06:12.528Z,79.66
2022-11-30T00:08:39.662Z,79.66
2022-11-30T00:11:14.588Z,79.42
2022-11-30T00:13:42.215Z,79.40
2022-11-30T00:16:09.799Z,79.48
2022-11-30T00:18:37.572Z,79.49
2022-11-30T00:21:08.811Z,79.43
2022-11-30T00:23:38.597Z,79.54
2022-11-30T00:26:10.053Z,79.59
2022-11-30T00:28:37.679Z,79.59
2022-11-30T00:31:08.889Z,79.58
2022-11-30T00:33:37.695Z,79.62
2022-11-30T00:36:25.677Z,79.67
2022-11-30T00:38:52.493Z,79.75
2022-11-30T00:41:20.034Z,79.75
2022-11-30T00:43:46.916Z,79.60
2022-11-30T00:46:14.027Z,79.51
2022-11-30T00:48:41.555Z,79.46
2022-11-30T00:51:11.195Z,79.47
2022-11-30T00:53:39.701Z,79.49
2022-11-30T00:56:07.976Z,79.13
2022-11-30T00:58:34.946Z,79.00
2022-11-30T01:01:01.837Z,78.83
2022-11-30T01:03:28.506Z,78.89
2022-11-30T01:05:55.146Z,78.90
2022-11-30T01:08:21.866Z,78.83
2022-11-30T01:10:53.309Z,78.71
2022-11-30T01:13:20.054Z,78.71
2022-11-30T01:15:46.865Z,78.55
2022-11-30T01:18:13.509Z,78.37
2022-11-30T01:20:42.597Z,78.50
2022-11-30T01:23:11.163Z,78.51
2022-11-30T01:25:39.773Z,78.69
2022-11-30T01:28:07.173Z,78.58
2022-11-30T01:30:33.932Z,78.50
2022-11-30T01:33:05.731Z,78.49
2022-11-30T01:35:32.358Z,78.42
2022-11-30T01:37:59.286Z,78.32
2022-11-30T01:40:26.036Z,78.30
2022-11-30T01:42:53.750Z,78.20
2022-11-30T01:45:20.398Z,78.07
2022-11-30T01:47:54.284Z,78.07
2022-11-30T01:50:28.605Z,78.12
2022-11-30T01:52:57.852Z,78.13
2022-11-30T01:55:28.966Z,78.11
2022-11-30T01:58:14.292Z,78.17
2022-11-30T02:00:46.329Z,78.29
2022-11-30T02:03:31.773Z,78.35
2022-11-30T02:06:00.274Z,78.31
2022-11-30T02:08:28.697Z,78.26
2022-11-30T02:11:00.646Z,78.37
2022-11-30T02:14:02.033Z,78.34
2022-11-30T02:16:43.860Z,78.37
2022-11-30T02:19:16.829Z,78.47
2022-11-30T02:21:58.505Z,78.52
2022-11-30T02:24:44.009Z,78.51
2022-11-30T02:27:29.285Z,78.56
2022-11-30T02:30:04.074Z,78.51
2022-11-30T02:33:10.066Z,78.65
2022-11-30T02:35:41.173Z,78.76
2022-11-30T02:38:08.008Z,78.66
2022-11-30T02:40:35.702Z,78.60
2022-11-30T02:43:06.114Z,78.60
2022-11-30T02:46:16.755Z,78.71
2022-11-30T02:48:47.437Z,78.83
2022-11-30T02:51:21.616Z,78.93
2022-11-30T02:53:49.002Z,79.00
2022-11-30T02:56:27.268Z,79.06
2022-11-30T02:58:54.379Z,79.04
2022-11-30T03:01:22.257Z,78.97
2022-11-30T03:03:48.938Z,79.00
2022-11-30T03:06:15.559Z,78.93
2022-11-30T03:08:42.201Z,79.06
2022-11-30T03:11:08.859Z,79.12
2022-11-30T03:13:35.549Z,79.10
2022-11-30T03:16:11.530Z,79.09
2022-11-30T03:18:39.082Z,79.20
2022-11-30T03:21:10.391Z,79.06
2022-11-30T03:23:38.624Z,78.77
2022-11-30T03:26:08.029Z,78.66
2022-11-30T03:28:37.193Z,78.57
2022-11-30T03:31:04.550Z,78.54
2022-11-30T03:33:31.314Z,78.62
2022-11-30T03:36:07.532Z,78.71
2022-11-30T03:38:34.725Z,78.75
2022-11-30T03:41:08.765Z,78.61
2022-11-30T03:43:35.712Z,78.47
2022-11-30T03:46:03.588Z,78.36
2022-11-30T03:48:30.936Z,78.30
2022-11-30T03:50:57.683Z,78.27
2022-11-30T03:53:25.422Z,78.04
2022-11-30T03:55:58.733Z,77.90
2022-11-30T03:58:26.159Z,78.05
2022-11-30T04:01:06.309Z,78.13
2022-11-30T04:03:33.787Z,78.10
2022-11-30T04:06:02.172Z,78.13
2022-11-30T04:08:29.723Z,78.16
2022-11-30T04:10:59.288Z,78.12
2022-11-30T04:13:27.233Z,78.18
2022-11-30T04:15:54.563Z,78.20
2022-11-30T04:18:23.810Z,78.13
2022-11-30T04:20:56.228Z,78.20
2022-11-30T04:23:25.200Z,78.17
2022-11-30T04:25:52.390Z,78.25
2022-11-30T04:28:19.612Z,78.33
2022-11-30T04:30:47.220Z,78.29
2022-11-30T04:33:16.187Z,78.14
2022-11-30T04:35:48.489Z,78.19
2022-11-30T04:38:15.141Z,78.26
2022-11-30T04:40:43.365Z,78.21
2022-11-30T04:43:11.708Z,78.10
2022-11-30T04:45:38.745Z,78.18
2022-11-30T04:48:06.405Z,78.11
2022-11-30T04:50:34.066Z,78.06
2022-11-30T04:53:00.754Z,78.16
2022-11-30T04:55:27.746Z,78.33
2022-11-30T04:57:54.401Z,78.30
2022-11-30T05:00:21.470Z,78.29
2022-11-30T05:02:52.820Z,78.08
2022-11-30T05:05:20.554Z,78.12
2022-11-30T05:07:55.137Z,78.09
2022-11-30T05:10:21.958Z,78.08
2022-11-30T05:12:48.493Z,78.07
2022-11-30T05:15:15.179Z,78.10
2022-11-30T05:17:41.877Z,78.01
2022-11-30T05:20:09.036Z,78.10
2022-11-30T05:22:35.696Z,78.03
2022-11-30T05:25:02.587Z,78.16
2022-11-30T05:27:29.295Z,78.18
2022-11-30T05:29:56.035Z,78.07
2022-11-30T05:32:22.696Z,78.17
2022-11-30T05:34:51.782Z,78.33
2022-11-30T05:37:19.585Z,78.12
2022-11-30T05:39:46.429Z,78.11
2022-11-30T05:42:13.248Z,77.76
2022-11-30T05:44:39.879Z,77.70
2022-11-30T05:47:06.568Z,77.84
2022-11-30T05:49:33.224Z,78.00
2022-11-30T05:51:59.815Z,77.99
2022-11-30T05:54:26.534Z,77.75
2022-11-30T05:56:55.299Z,77.54
2022-11-30T05:59:23.173Z,77.40
2022-11-30T06:01:52.686Z,77.32
2022-11-30T06:04:19.779Z,77.27
2022-11-30T06:06:46.389Z,77.11
2022-11-30T06:09:13.033Z,77.00
2022-11-30T06:11:39.611Z,77.04
2022-11-30T06:14:06.366Z,77.07
2022-11-30T06:16:33.215Z,77.03
2022-11-30T06:18:59.834Z,77.00
2022-11-30T06:21:26.472Z,76.72
2022-11-30T06:23:53.162Z,76.49
2022-11-30T06:26:19.703Z,76.12
2022-11-30T06:28:48.410Z,75.97
2022-11-30T06:31:16.722Z,76.04
2022-11-30T06:33:43.697Z,75.96
2022-11-30T06:36:10.636Z,75.97
2022-11-30T06:38:37.726Z,75.73
2022-11-30T06:41:10.456Z,75.68
2022-11-30T06:43:38.997Z,75.46
2022-11-30T06:46:07.185Z,75.43
2022-11-30T06:48:35.713Z,75.18
2022-11-30T06:51:07.327Z,75.52
2022-11-30T06:53:34.320Z,75.69
2022-11-30T06:56:10.031Z,75.62
2022-11-30T06:58:41.740Z,75.43
2022-11-30T07:01:12.825Z,75.36
2022-11-30T07:03:40.499Z,75.14
2022-11-30T07:06:13.763Z,75.18
2022-11-30T07:08:42.233Z,75.41
2022-11-30T07:11:11.833Z,75.04
2022-11-30T07:13:39.079Z,75.15
2022-11-30T07:16:08.201Z,75.16
2022-11-30T07:18:35.089Z,75.12
2022-11-30T07:21:04.724Z,74.99
2022-11-30T07:23:56.363Z,75.10
2022-11-30T07:26:25.575Z,74.87
2022-11-30T07:28:58.805Z,74.92
2022-11-30T07:31:31.489Z,74.75
2022-11-30T07:33:59.638Z,74.96
2022-11-30T07:36:27.885Z,75.10
2022-11-30T07:38:54.855Z,75.15
2022-11-30T07:41:21.936Z,75.68
2022-11-30T07:43:48.574Z,75.26
2022-11-30T07:46:16.800Z,75.03
2022-11-30T07:48:45.256Z,74.30
2022-11-30T07:51:22.555Z,74.03
2022-11-30T07:53:49.824Z,74.07
2022-11-30T07:56:19.360Z,74.26
2022-11-30T07:58:47.471Z,74.53
2022-11-30T08:01:18.180Z,74.62
2022-11-30T08:03:45.282Z,74.75
2022-11-30T08:06:15.500Z,74.83
2022-11-30T08:08:44.810Z,75.00
2022-11-30T08:11:15.598Z,75.01
2022-11-30T08:13:43.201Z,75.04
2022-11-30T08:16:15.480Z,75.01
2022-11-30T08:18:42.800Z,74.68
2022-11-30T08:21:13.109Z,74.77
2022-11-30T08:23:43.112Z,74.49
2022-11-30T08:26:23.116Z,73.92
2022-11-30T08:28:52.174Z,73.63
2022-11-30T08:31:26.265Z,73.39
2022-11-30T08:33:59.532Z,73.49
2022-11-30T08:36:27.989Z,73.71
2022-11-30T08:38:56.502Z,73.84
2022-11-30T08:41:23.272Z,74.16
2022-11-30T08:43:51.013Z,74.36
2022-11-30T08:46:49.620Z,73.74
2022-11-30T08:49:24.898Z,73.40
2022-11-30T08:54:47.025Z,73.78
2022-11-30T08:57:17.592Z,73.55
2022-11-30T08:59:44.819Z,73.95
2022-11-30T09:02:17.447Z,74.18
2022-11-30T09:04:45.501Z,73.87
2022-11-30T09:07:12.176Z,73.91
2022-11-30T09:09:39.244Z,73.91
2022-11-30T09:12:07.449Z,73.89
2022-11-30T09:14:34.137Z,73.89
2022-11-30T09:17:00.788Z,73.84
2022-11-30T09:19:27.522Z,73.96
2022-11-30T09:21:54.307Z,73.84
2022-11-30T09:24:21.191Z,73.97
2022-11-30T09:26:47.989Z,73.97
2022-11-30T09:29:14.811Z,73.91
2022-11-30T09:31:41.543Z,73.97
2022-11-30T09:34:12.028Z,73.93
2022-11-30T09:36:38.671Z,73.79
2022-11-30T09:39:06.463Z,74.08
2022-11-30T09:42:06.420Z,74.00
2022-11-30T09:45:03.051Z,74.11
2022-11-30T09:47:54.042Z,73.36
2022-11-30T09:50:25.951Z,73.48
2022-11-30T09:53:04.250Z,73.49
2022-11-30T09:55:39.413Z,73.05
2022-11-30T09:58:07.574Z,72.89
2022-11-30T10:00:36.951Z,73.09
2022-11-30T10:03:06.687Z,73.03
2022-11-30T10:05:57.664Z,72.77
2022-11-30T10:08:46.052Z,72.49
2022-11-30T10:11:36.362Z,72.10
2022-11-30T10:14:48.939Z,71.40
2022-11-30T10:17:41.260Z,71.88
2022-11-30T10:20:42.295Z,71.03
2022-11-30T10:23:46.154Z,71.33
2022-11-30T10:26:17.806Z,71.02
2022-11-30T10:28:59.150Z,70.71
2022-11-30T10:31:36.327Z,70.48
2022-11-30T10:34:33.594Z,71.17
2022-11-30T10:37:17.126Z,71.26
2022-11-30T10:39:58.919Z,71.09
2022-11-30T10:42:35.146Z,71.51
2022-11-30T10:45:10.209Z,70.62
2022-11-30T10:47:52.533Z,69.19
2022-11-30T10:50:28.199Z,69.48
2022-11-30T10:53:00.580Z,69.38
2022-11-30T10:55:31.210Z,69.99
2022-11-30T10:58:13.228Z,70.03
2022-11-30T11:00:39.843Z,70.32
2022-11-30T11:03:24.610Z,69.89
2022-11-30T11:06:16.085Z,69.36
2022-11-30T11:08:45.738Z,69.26
2022-11-30T11:11:32.533Z,69.35
2022-11-30T11:14:20.308Z,69.27
2022-11-30T11:16:58.778Z,68.95
2022-11-30T11:19:33.505Z,68.86
2022-11-30T11:22:14.812Z,69.27
2022-11-30T11:24:41.762Z,69.26
2022-11-30T11:27:30.983Z,69.18
2022-11-30T11:30:03.015Z,68.70
2022-11-30T11:32:31.066Z,68.42
2022-11-30T11:34:58.462Z,68.59
2022-11-30T11:37:33.715Z,68.71
2022-11-30T11:40:17.564Z,67.75
2022-11-30T11:42:58.224Z,67.73
2022-11-30T11:45:29.019Z,67.41
2022-11-30T11:48:08.155Z,67.31
2022-11-30T11:51:05.476Z,67.06
2022-11-30T11:53:56.181Z,67.47
2022-11-30T11:56:28.551Z,67.30
2022-11-30T11:59:32.667Z,67.20
2022-11-30T12:02:22.341Z,67.52
2022-11-30T12:04:54.089Z,67.71
2022-11-30T12:07:50.412Z,67.34
2022-11-30T12:13:22.461Z,66.86
2022-11-30T12:15:57.103Z,66.82
2022-11-30T12:18:31.502Z,66.66
2022-11-30T12:21:15.911Z,66.84
2022-11-30T12:24:24.815Z,67.24
2022-11-30T12:27:06.633Z,67.58
2022-11-30T12:29:57.735Z,67.62
2022-11-30T12:32:59.582Z,68.11
2022-11-30T12:36:03.871Z,67.67
2022-11-30T12:38:58.846Z,67.41
2022-11-30T12:42:07.341Z,67.69
2022-11-30T12:45:17.337Z,68.17
2022-11-30T12:48:18.961Z,68.39
2022-11-30T12:51:18.965Z,68.27
2022-11-30T12:54:02.132Z,68.22
2022-11-30T12:56:58.805Z,68.15
2022-11-30T12:59:53.515Z,68.08
2022-11-30T13:03:03.148Z,68.12
2022-11-30T13:05:36.683Z,68.69
2022-11-30T13:08:16.053Z,68.70
2022-11-30T13:10:47.229Z,68.76
2022-11-30T13:13:19.315Z,68.78
2022-11-30T13:15:49.214Z,68.82
2022-11-30T13:18:19.626Z,68.58
2022-11-30T13:21:06.784Z,68.50
2022-11-30T13:24:19.168Z,68.38
2022-11-30T13:26:52.479Z,67.83
2022-11-30T13:30:07.341Z,67.54
2022-11-30T13:32:57.208Z,67.29
2022-11-30T13:35:30.370Z,67.68
2022-11-30T13:41:08.810Z,67.14
2022-11-30T13:43:49.925Z,67.09
2022-11-30T13:46:23.567Z,67.36
2022-11-30T13:49:23.226Z,67.54
2022-11-30T13:52:20.038Z,67.33
2022-11-30T13:54:54.682Z,67.54
2022-11-30T13:57:27.251Z,67.50
2022-11-30T14:00:01.097Z,67.50
2022-11-30T14:02:33.872Z,67.89
2022-11-30T14:05:18.853Z,68.35
2022-11-30T14:08:00.852Z,68.69
2022-11-30T14:10:36.279Z,68.95
2022-11-30T14:13:09.691Z,68.94
2022-11-30T14:15:39.226Z,68.90
2022-11-30T14:18:08.592Z,69.12
2022-11-30T14:20:54.109Z,69.28
2022-11-30T14:23:48.153Z,69.44
2022-11-30T14:26:21.425Z,69.72
2022-11-30T14:29:09.546Z,69.86
2022-11-30T14:32:12.437Z,69.98
2022-11-30T14:34:46.326Z,69.91
2022-11-30T14:37:21.663Z,70.00
2022-11-30T14:39:50.929Z,70.02
2022-11-30T14:42:27.265Z,70.06
2022-11-30T14:44:55.386Z,70.25
2022-11-30T14:47:34.954Z,71.14
2022-11-30T14:50:05.914Z,71.60
2022-11-30T14:53:07.778Z,71.92
2022-11-30T14:56:35.760Z,72.32
2022-11-30T14:59:48.594Z,72.31
2022-11-30T15:02:34.254Z,72.65
2022-11-30T15:05:01.879Z,72.74
2022-11-30T15:07:29.873Z,72.77
2022-11-30T15:10:12.657Z,72.74
2022-11-30T15:12:40.883Z,72.81
2022-11-30T15:15:19.824Z,72.88
2022-11-30T15:17:59.219Z,73.13
2022-11-30T15:20:35.394Z,73.13
2022-11-30T15:23:02.113Z,73.16
2022-11-30T15:25:44.983Z,73.16
2022-11-30T15:28:20.116Z,73.12
2022-11-30T15:30:49.029Z,73.09
2022-11-30T15:33:20.472Z,73.02
2022-11-30T15:36:18.812Z,73.16
2022-11-30T15:38:43.011Z,73.12
2022-11-30T15:41:22.546Z,73.05
2022-11-30T15:43:56.244Z,72.86
2022-11-30T15:46:46.045Z,72.78
2022-11-30T15:49:28.233Z,72.75
2022-11-30T15:52:13.216Z,72.83
2022-11-30T15:54:55.456Z,72.95
2022-11-30T15:57:25.606Z,72.78
2022-11-30T16:00:12.673Z,72.76
2022-11-30T16:02:39.674Z,72.82
2022-11-30T16:05:22.016Z,72.71
2022-11-30T16:08:00.115Z,72.85
2022-11-30T16:10:38.103Z,72.87
2022-11-30T16:13:06.496Z,73.22
2022-11-30T16:15:36.277Z,73.24
2022-11-30T16:18:19.156Z,73.42
2022-11-30T16:20:50.448Z,73.42
2022-11-30T16:23:19.357Z,73.73
2022-11-30T16:25:48.791Z,73.75
2022-11-30T16:28:17.976Z,73.89
2022-11-30T16:30:46.041Z,73.96
2022-11-30T16:33:24.521Z,73.86
2022-11-30T16:36:18.686Z,73.21
2022-11-30T16:38:50.908Z,73.38
2022-11-30T16:41:24.283Z,72.87
2022-11-30T16:43:54.012Z,73.03
2022-11-30T16:46:24.682Z,73.22
2022-11-30T16:48:52.667Z,73.40
2022-11-30T16:51:27.911Z,73.14
2022-11-30T16:53:55.783Z,72.97
2022-11-30T16:56:23.149Z,73.08
2022-11-30T16:58:50.745Z,72.87
2022-11-30T17:01:35.261Z,72.88
2022-11-30T17:04:24.298Z,73.03
2022-11-30T17:06:57.194Z,73.22
2022-11-30T17:09:29.933Z,73.16
2022-11-30T17:11:56.612Z,73.04
2022-11-30T17:14:23.279Z,72.98
2022-11-30T17:16:50.120Z,72.53
2022-11-30T17:19:16.962Z,72.30
2022-11-30T17:21:44.986Z,72.24
2022-11-30T17:24:12.388Z,72.29
2022-11-30T17:26:39.324Z,72.19
2022-11-30T17:29:06.484Z,72.35
2022-11-30T17:31:33.478Z,72.42
2022-11-30T17:34:00.966Z,72.36
2022-11-30T17:36:29.305Z,72.35
2022-11-30T17:38:56.788Z,72.26
2022-11-30T17:41:23.951Z,72.25
2022-11-30T17:43:52.097Z,72.17
2022-11-30T17:46:19.170Z,72.12
2022-11-30T17:48:46.338Z,71.72
2022-11-30T17:51:13.253Z,71.55
2022-11-30T17:53:41.609Z,71.49
2022-11-30T17:56:15.056Z,71.69
2022-11-30T17:58:44.569Z,72.13
2022-11-30T18:01:24.113Z,72.35
2022-11-30T18:03:52.764Z,72.42
2022-11-30T18:06:20.756Z,72.53
2022-11-30T18:08:48.462Z,72.53
2022-11-30T18:11:20.338Z,72.34
2022-11-30T18:13:49.890Z,72.41
2022-11-30T18:16:21.326Z,72.44
2022-11-30T18:18:48.926Z,72.54
2022-11-30T18:21:21.371Z,72.65
2022-11-30T18:23:49.971Z,72.75
2022-11-30T18:26:22.049Z,72.91
2022-11-30T18:28:58.250Z,73.04
2022-11-30T18:31:26.823Z,73.15
2022-11-30T18:34:04.333Z,73.27
2022-11-30T18:36:33.194Z,73.32
2022-11-30T18:38:59.925Z,73.42
2022-11-30T18:41:30.146Z,73.49
2022-11-30T18:43:57.660Z,73.60
2022-11-30T18:46:25.207Z,73.65
2022-11-30T18:48:54.183Z,73.67
2022-11-30T18:51:27.349Z,73.60
2022-11-30T18:53:59.848Z,73.69
2022-11-30T18:56:30.222Z,73.89
2022-11-30T18:59:00.285Z,74.04
2022-11-30T19:01:28.302Z,74.12
2022-11-30T19:04:01.264Z,74.16
2022-11-30T19:06:30.023Z,74.30
2022-11-30T19:08:57.663Z,74.51
2022-11-30T19:11:24.760Z,74.49
2022-11-30T19:13:57.140Z,74.63
2022-11-30T19:16:25.277Z,74.66
2022-11-30T19:18:53.247Z,75.03
2022-11-30T19:21:22.539Z,75.27
2022-11-30T19:23:50.099Z,75.53
2022-11-30T19:26:17.173Z,75.44
2022-11-30T19:28:45.307Z,75.41
2022-11-30T19:31:18.536Z,75.33
2022-11-30T19:33:51.839Z,75.22
2022-11-30T19:36:25.357Z,75.25
2022-11-30T19:38:52.205Z,75.32
2022-11-30T19:41:21.668Z,75.27
2022-11-30T19:43:59.570Z,75.26
2022-11-30T19:46:28.522Z,75.26
2022-11-30T19:48:57.778Z,75.32
2022-11-30T19:51:24.696Z,75.33
2022-11-30T19:53:55.658Z,75.32
2022-11-30T19:56:24.197Z,75.22
2022-11-30T19:58:52.240Z,75.38
2022-11-30T20:01:24.671Z,75.34
2022-11-30T20:03:55.292Z,75.37
2022-11-30T20:06:28.321Z,75.33
2022-11-30T20:08:55.884Z,75.36
2022-11-30T20:11:22.521Z,75.27
2022-11-30T20:13:51.469Z,75.33
2022-11-30T20:16:20.953Z,75.46
2022-11-30T20:18:57.523Z,75.56
2022-11-30T20:21:28.300Z,75.70
2022-11-30T20:23:59.913Z,75.74
2022-11-30T20:26:31.434Z,75.77
2022-11-30T20:29:01.394Z,75.80
2022-11-30T20:31:33.377Z,75.68
2022-11-30T20:34:00.131Z,75.62
2022-11-30T20:36:26.918Z,75.73
2022-11-30T20:38:53.940Z,75.95
2022-11-30T20:41:24.399Z,75.84
2022-11-30T20:43:51.917Z,76.01
2022-11-30T20:46:22.492Z,75.94
2022-11-30T20:48:50.336Z,75.99
2022-11-30T20:51:30.775Z,75.90
2022-11-30T20:54:05.751Z,75.94
2022-11-30T20:56:35.335Z,75.90
2022-11-30T20:59:05.936Z,76.11
2022-11-30T21:01:33.453Z,75.98
2022-11-30T21:04:01.002Z,75.84
2022-11-30T21:06:31.055Z,75.68
2022-11-30T21:08:58.581Z,75.63
2022-11-30T21:11:28.930Z,75.71
2022-11-30T21:13:59.271Z,75.76
2022-11-30T21:16:29.858Z,75.70
2022-11-30T21:19:00.571Z,75.58
2022-11-30T21:21:35.175Z,75.52
2022-11-30T21:24:06.759Z,75.68
2022-11-30T21:26:38.667Z,75.82
2022-11-30T21:38:20.053Z,76.41
2022-11-30T21:41:00.012Z,76.21
2022-11-30T21:43:28.897Z,76.25
2022-11-30T21:46:13.020Z,76.27
2022-11-30T21:48:42.619Z,76.12
2022-11-30T21:51:19.207Z,75.92
2022-11-30T21:53:49.951Z,75.69
2022-11-30T21:56:23.895Z,75.53
2022-11-30T21:58:52.508Z,75.50
2022-11-30T22:01:23.347Z,75.65
2022-11-30T22:03:50.497Z,75.63
2022-11-30T22:06:19.025Z,75.58
2022-11-30T22:08:46.746Z,75.65
2022-11-30T22:11:16.999Z,75.60
2022-11-30T22:13:45.572Z,75.33
2022-11-30T22:16:16.054Z,75.27
2022-11-30T22:18:44.010Z,75.24
2022-11-30T22:21:13.517Z,75.17
2022-11-30T22:23:45.259Z,75.03
2022-11-30T22:26:17.680Z,74.95
2022-11-30T22:28:52.109Z,74.90
2022-11-30T22:31:21.784Z,75.02
2022-11-30T22:33:49.202Z,74.96
2022-11-30T22:36:23.100Z,75.00
2022-11-30T22:39:00.244Z,75.04
2022-11-30T22:41:28.291Z,75.07
2022-11-30T22:43:56.026Z,75.11
2022-11-30T22:46:29.739Z,75.17
2022-11-30T22:49:00.216Z,75.30
2022-11-30T22:51:30.853Z,75.38
2022-11-30T22:53:58.847Z,75.45
2022-11-30T22:56:32.018Z,75.53
2022-11-30T22:59:00.769Z,75.71
2022-11-30T23:01:35.002Z,75.79
2022-11-30T23:04:12.989Z,75.93
2022-11-30T23:06:41.596Z,76.24
2022-11-30T23:09:13.178Z,76.49
2022-11-30T23:11:40.393Z,76.51
2022-11-30T23:14:08.449Z,76.72
2022-11-30T23:16:39.156Z,76.94
2022-11-30T23:19:06.418Z,76.83
2022-11-30T23:21:41.607Z,76.87
2022-11-30T23:24:14.349Z,77.01
2022-11-30T23:26:41.568Z,77.04
2022-11-30T23:29:12.255Z,77.15
2022-11-30T23:31:41.615Z,77.06
2022-11-30T23:34:13.698Z,77.17
2022-11-30T23:36:40.480Z,77.12
2022-11-30T23:39:11.857Z,77.15
2022-11-30T23:41:39.149Z,77.25
2022-11-30T23:44:07.526Z,77.10
2022-11-30T23:46:34.882Z,77.14
2022-11-30T23:49:01.942Z,77.18
2022-11-30T23:51:29.030Z,77.26
2022-11-30T23:53:56.136Z,77.26
2022-11-30T23:56:24.719Z,77.50
2022-11-30T23:58:52.511Z,77.52
